Time;durP1;ratioP1;P1;durP2;ratioP2;P2;SDS_P1;SDS_P2;PMS_P1;PMS_P2;Temp;Humidity;BMP_temperature;BMP_pressure;BME280_temperature;BME280_humidity;BME280_pressure;Samples;Min_cycle;Max_cycle;Signal;HPM_P1;HPM_P2
2021/03/28 00:02:35;;;;;;;1.98;0.82;;;;;;;11.37;41.17;100879.53;4472969;31;34304;-82
2021/03/28 00:05:06;;;;;;;4.32;1.10;;;;;;;11.62;40.58;100890.28;4486088;31;34107;-83
2021/03/28 00:07:42;;;;;;;1.12;0.60;;;;;;;11.32;40.96;100883.78;4500643;31;33784;-83
2021/03/28 00:10:24;;;;;;;3.30;1.02;;;;;;;11.40;40.09;100891.72;4486237;31;34303;-83
2021/03/28 00:13:07;;;;;;;3.72;0.90;;;;;;;11.18;40.56;100898.34;4473235;31;34042;-81
2021/03/28 00:15:38;;;;;;;2.47;1.00;;;;;;;11.73;39.22;100910.44;4473245;31;34024;-82
2021/03/28 00:18:07;;;;;;;2.85;0.90;;;;;;;11.25;40.04;100902.78;4500369;31;33492;-82
2021/03/28 00:20:37;;;;;;;2.45;0.93;;;;;;;11.26;39.78;100912.38;4485497;31;34410;-82
2021/03/28 00:23:13;;;;;;;1.65;0.80;;;;;;;11.42;39.41;100913.44;4487246;31;34641;-84
2021/03/28 00:25:45;;;;;;;1.40;0.85;;;;;;;11.07;39.94;100919.88;4474769;31;32888;-83
2021/03/28 00:28:37;;;;;;;2.25;0.60;;;;;;;11.14;39.50;100921.72;4487572;31;34012;-82
2021/03/28 00:31:36;;;;;;;3.33;0.80;;;;;;;10.87;40.10;100922.16;4488039;31;35348;-82
2021/03/28 00:34:10;;;;;;;0.90;0.70;;;;;;;11.05;39.58;100922.47;4496877;31;33983;-83
2021/03/28 00:36:45;;;;;;;0.88;0.60;;;;;;;11.41;38.42;100917.78;4474879;31;33319;-82
2021/03/28 00:39:32;;;;;;;3.58;0.90;;;;;;;11.57;38.12;100916.28;4488546;31;33628;-82
2021/03/28 00:42:06;;;;;;;2.25;1.00;;;;;;;11.51;38.18;100910.97;4487682;31;34688;-82
2021/03/28 00:44:44;;;;;;;1.58;0.90;;;;;;;11.45;38.23;100909.16;4501868;31;33959;-83
2021/03/28 00:47:19;;;;;;;1.77;0.88;;;;;;;11.54;38.03;100909.28;4487442;31;33818;-82
2021/03/28 00:49:47;;;;;;;2.80;1.12;;;;;;;12.07;37.36;100899.56;4461846;31;32632;-82
2021/03/28 00:52:15;;;;;;;1.45;0.80;;;;;;;12.18;36.95;100899.66;4474022;31;34582;-82
2021/03/28 00:55:17;;;;;;;4.55;0.80;;;;;;;12.22;36.55;100906.66;4502270;31;33845;-82
2021/03/28 00:57:56;;;;;;;2.40;0.88;;;;;;;12.30;36.30;100902.41;4487745;31;33480;-82
2021/03/28 01:00:52;;;;;;;3.58;1.20;;;;;;;12.29;36.42;100905.84;4461583;31;32674;-82
2021/03/28 01:03:37;;;;;;;3.80;1.00;;;;;;;12.36;36.24;100909.41;4501980;31;35137;-82
2021/03/28 01:06:17;;;;;;;4.60;1.27;;;;;;;12.06;36.96;100909.94;4474789;31;34130;-82
2021/03/28 01:08:56;;;;;;;2.05;0.75;;;;;;;11.85;37.61;100923.62;4474722;31;34099;-82
2021/03/28 01:11:53;;;;;;;2.95;0.95;;;;;;;11.82;37.59;100920.09;4487563;31;33487;-82
2021/03/28 01:14:42;;;;;;;3.47;1.10;;;;;;;11.33;38.65;100921.13;4441374;31;36603;-82
2021/03/28 01:17:31;;;;;;;1.17;0.65;;;;;;;11.46;38.18;100921.31;4501805;31;33715;-82
2021/03/28 01:20:14;;;;;;;5.57;2.08;;;;;;;11.45;38.34;100929.13;4487666;31;33105;-82
2021/03/28 01:22:47;;;;;;;;;;;;;;;11.76;37.60;100935.66;4501987;31;33767;-82
2021/03/28 01:25:31;;;;;;;2.00;0.80;;;;;;;11.70;37.70;100925.13;4501476;31;34495;-82
2021/03/28 01:28:05;;;;;;;1.50;0.70;;;;;;;11.73;37.82;100928.66;4487585;31;33540;-82
2021/03/28 01:30:43;;;;;;;3.17;1.00;;;;;;;11.58;38.42;100920.59;4487354;31;33256;-82
2021/03/28 01:33:24;;;;;;;3.28;0.73;;;;;;;11.24;39.47;100918.41;4487259;31;33419;-82
2021/03/28 01:36:09;;;;;;;1.95;0.80;;;;;;;11.75;38.66;100919.13;4487615;31;34201;-82
2021/03/28 01:38:42;;;;;;;1.25;0.70;;;;;;;11.84;38.51;100928.81;4487455;31;33938;-82
2021/03/28 01:41:18;;;;;;;1.50;0.68;;;;;;;11.10;40.52;100930.34;4474362;31;34177;-82
2021/03/28 01:44:00;;;;;;;1.75;0.88;;;;;;;11.38;40.08;100940.31;4487494;31;33684;-82
2021/03/28 01:47:03;;;;;;;2.95;0.95;;;;;;;11.37;40.21;100939.44;4487514;31;34364;-82
2021/03/28 01:50:12;;;;;;;2.17;1.00;;;;;;;11.37;40.61;100951.56;4475224;31;34690;-82
2021/03/28 01:52:47;;;;;;;5.68;1.80;;;;;;;11.41;41.27;100949.03;4501711;31;33795;-83
2021/03/28 01:55:20;;;;;;;2.90;1.25;;;;;;;11.06;42.52;100955.44;4474552;31;34971;-82
2021/03/28 01:57:52;;;;;;;2.47;0.90;;;;;;;11.32;42.27;100959.31;4501496;31;34237;-82
2021/03/28 02:00:26;;;;;;;1.75;1.30;;;;;;;11.32;42.34;100959.31;4501346;31;34841;-82
2021/03/28 02:02:58;;;;;;;5.10;1.25;;;;;;;11.36;42.33;100966.31;4487385;31;33859;-82
2021/03/28 02:05:52;;;;;;;5.65;1.40;;;;;;;11.57;42.05;100956.25;4487369;31;34468;-82
2021/03/28 02:08:35;;;;;;;3.22;1.05;;;;;;;11.28;42.95;100967.94;4487287;31;34971;-83
2021/03/28 02:11:21;;;;;;;;;;;;;;;10.88;44.02;100970.75;4487323;31;33567;-82
2021/03/28 02:14:00;;;;;;;3.12;1.27;;;;;;;11.20;43.29;100977.34;4501634;31;32811;-83
2021/03/28 02:16:33;;;;;;;1.65;1.30;;;;;;;11.13;43.43;100980.72;4487230;31;33586;-83
2021/03/28 02:19:06;;;;;;;3.62;1.60;;;;;;;10.84;44.40;100987.16;4501658;31;34163;-82
2021/03/28 02:21:53;;;;;;;2.72;1.30;;;;;;;11.17;43.52;100990.31;4487605;31;34498;-83
2021/03/28 02:24:47;;;;;;;2.47;1.42;;;;;;;11.11;43.76;100989.34;4487285;31;34171;-88
2021/03/28 02:27:23;;;;;;;2.78;1.15;;;;;;;11.43;42.88;100991.59;4475115;31;33780;-87
2021/03/28 02:30:27;;;;;;;2.03;1.45;;;;;;;11.69;42.18;101001.59;4502126;31;34318;-87
2021/03/28 02:33:17;;;;;;;2.30;1.30;;;;;;;11.49;42.94;101003.84;4502013;31;34307;-87
2021/03/28 02:35:47;;;;;;;1.60;1.27;;;;;;;11.16;43.66;101012.03;4487696;31;33352;-87
2021/03/28 02:38:34;;;;;;;3.17;1.50;;;;;;;11.38;43.26;100998.50;4502084;31;34110;-88
2021/03/28 02:41:12;;;;;;;1.70;1.40;;;;;;;11.09;43.81;101004.97;4474463;31;33739;-87
2021/03/28 02:43:51;;;;;;;6.22;1.40;;;;;;;11.12;43.98;101007.63;4487442;31;34768;-87
2021/03/28 02:46:20;;;;;;;3.03;1.40;;;;;;;10.94;44.38;101004.69;4474628;31;34438;-87
2021/03/28 02:49:15;;;;;;;2.22;1.20;;;;;;;10.37;45.68;100998.41;4474814;31;33571;-87
2021/03/28 02:51:58;;;;;;;2.45;1.42;;;;;;;10.64;44.86;101001.56;4474433;31;34646;-87
2021/03/28 02:54:25;;;;;;;;;;;;;;;10.22;45.80;101005.94;4502243;31;34511;-87
2021/03/28 02:57:06;;;;;;;3.37;1.37;;;;;;;10.19;46.00;100994.62;4501920;31;34219;-87
2021/03/28 02:59:46;;;;;;;3.73;2.10;;;;;;;9.92;46.62;101011.31;4487420;31;33327;-87
2021/03/28 03:02:23;;;;;;;3.50;1.77;;;;;;;10.07;46.67;101012.53;4474386;31;34750;-87
2021/03/28 03:05:21;;;;;;;3.45;1.60;;;;;;;10.33;46.09;101018.28;4487460;31;34982;-87
2021/03/28 03:08:18;;;;;;;3.78;1.77;;;;;;;10.09;45.89;101010.84;4501867;31;32992;-87
2021/03/28 03:11:33;;;;;;;2.62;1.58;;;;;;;9.98;45.54;101007.13;4394335;32;34978;-93
2021/03/28 03:14:27;;;;;;;2.20;1.58;;;;;;;9.74;45.84;101027.41;4392873;32;33928;-93
2021/03/28 03:17:53;;;;;;;2.35;1.67;;;;;;;10.11;44.67;101019.56;4380267;32;35095;-92
2021/03/28 03:20:34;;;;;;;2.55;1.42;;;;;;;10.20;44.19;101024.97;4392701;32;34315;-92
2021/03/28 03:23:20;;;;;;;4.03;1.40;;;;;;;10.38;43.39;101031.38;4380261;32;32428;-90
2021/03/28 03:26:07;;;;;;;2.22;1.35;;;;;;;10.60;42.54;101037.03;4380256;32;36049;-91
2021/03/28 03:29:33;;;;;;;6.75;1.80;;;;;;;10.35;43.26;101049.53;4349783;32;34567;-93
2021/03/28 03:32:05;;;;;;;2.62;1.30;;;;;;;10.23;43.86;101062.25;4380524;32;34232;-93
2021/03/28 03:34:52;;;;;;;6.45;1.50;;;;;;;10.22;43.78;101073.53;4380294;32;33932;-92
2021/03/28 03:38:01;;;;;;;3.83;1.20;;;;;;;10.38;42.87;101081.69;4382476;32;35711;-92
2021/03/28 03:40:58;;;;;;;5.43;1.30;;;;;;;9.84;43.63;101080.44;4436615;32;34540;-94
2021/03/28 03:43:57;;;;;;;4.95;1.65;;;;;;;9.82;43.51;101083.00;4425619;32;34133;-92
2021/03/28 03:47:28;;;;;;;3.83;1.55;;;;;;;9.80;43.96;101087.28;4410944;32;34382;-91
2021/03/28 03:50:28;;;;;;;2.55;1.42;;;;;;;10.00;43.46;101088.63;4420082;32;34925;-91
2021/03/28 03:53:28;;;;;;;1.70;1.20;;;;;;;10.11;43.22;101092.38;4415293;32;34047;-92
2021/03/28 03:56:16;;;;;;;4.03;1.52;;;;;;;9.77;43.78;101089.81;4424115;32;34361;-91
2021/03/28 03:59:14;;;;;;;3.22;1.52;;;;;;;9.69;43.78;101090.47;4404614;32;32603;-91
2021/03/28 04:02:22;;;;;;;5.62;1.15;;;;;;;9.74;43.78;101079.38;4414606;32;35596;-92
2021/03/28 04:05:10;;;;;;;2.35;1.30;;;;;;;9.92;43.11;101089.28;4427530;32;34395;-92
2021/03/28 04:07:53;;;;;;;2.10;1.20;;;;;;;9.94;43.16;101104.06;4425317;32;33320;-92
2021/03/28 04:11:32;;;;;;;2.45;1.48;;;;;;;9.78;43.37;101112.34;4429351;32;34070;-92
2021/03/28 04:14:39;;;;;;;5.28;1.65;;;;;;;10.11;42.66;101110.56;4375793;32;33875;-94
2021/03/28 04:18:02;;;;;;;4.43;1.00;;;;;;;9.30;44.07;101122.41;4381752;32;34119;-93
2021/03/28 04:20:55;;;;;;;3.67;1.17;;;;;;;9.53;43.78;101117.81;4374345;32;33987;-92
2021/03/28 04:23:58;;;;;;;1.70;0.85;;;;;;;9.37;44.14;101119.13;4400283;32;34452;-92
2021/03/28 04:26:44;;;;;;;2.42;1.20;;;;;;;9.50;43.94;101131.59;4391687;32;35129;-91
2021/03/28 04:29:14;;;;;;;3.97;1.48;;;;;;;9.72;43.38;101138.22;4379477;32;34266;-92
2021/03/28 04:31:58;;;;;;;2.72;1.25;;;;;;;9.54;43.61;101145.53;4378915;32;36150;-91
2021/03/28 04:34:46;;;;;;;3.50;1.50;;;;;;;9.71;43.14;101146.81;4378645;32;34461;-91
2021/03/28 04:38:01;;;;;;;3.28;1.40;;;;;;;9.91;43.01;101150.75;4381636;32;34512;-92
2021/03/28 04:40:33;;;;;;;3.67;1.45;;;;;;;9.73;43.19;101152.03;4379265;32;34820;-92
2021/03/28 04:43:45;;;;;;;4.32;1.73;;;;;;;9.81;43.06;101159.22;4392334;32;33357;-93
2021/03/28 04:46:54;;;;;;;3.72;1.50;;;;;;;9.90;42.83;101158.53;4395424;32;34455;-93
2021/03/28 04:49:55;;;;;;;3.50;1.25;;;;;;;9.72;43.07;101168.50;4382651;32;34683;-93
2021/03/28 04:53:38;;;;;;;4.97;1.33;;;;;;;9.93;42.60;101164.69;4386134;32;35628;-91
2021/03/28 04:56:45;;;;;;;2.65;0.85;;;;;;;10.08;42.38;101165.03;4390340;32;35783;-93
2021/03/28 04:59:56;;;;;;;1.70;0.95;;;;;;;9.79;42.77;101179.09;4375023;32;34464;-92
2021/03/28 05:03:15;;;;;;;1.30;0.77;;;;;;;9.82;43.05;101179.13;4336093;32;34360;-92
2021/03/28 05:06:19;;;;;;;3.55;1.02;;;;;;;10.19;42.35;101189.63;4365154;32;36021;-92
2021/03/28 05:09:15;;;;;;;2.15;0.80;;;;;;;9.98;42.74;101191.66;4347279;33;34937;-92
2021/03/28 05:13:06;;;;;;;1.35;0.90;;;;;;;10.24;41.85;101209.63;4314957;33;35028;-92
2021/03/28 05:16:30;;;;;;;2.75;0.82;;;;;;;9.92;42.79;101209.72;4335711;33;34811;-93
2021/03/28 05:19:49;;;;;;;1.50;1.00;;;;;;;10.05;42.59;101203.97;4341410;32;33159;-93
2021/03/28 05:22:57;;;;;;;1.73;0.80;;;;;;;10.14;42.33;101203.34;4338455;33;33709;-94
2021/03/28 05:26:16;;;;;;;3.85;1.35;;;;;;;10.14;42.19;101217.22;4365230;32;34664;-93
2021/03/28 05:29:24;;;;;;;1.67;0.90;;;;;;;10.14;42.24;101222.44;4349860;32;35750;-94
2021/03/28 05:32:37;;;;;;;4.12;0.90;;;;;;;9.98;42.17;101215.03;4351997;32;34614;-93
2021/03/28 05:35:40;;;;;;;3.08;1.20;;;;;;;10.14;41.89;101217.22;4374399;32;33156;-92
2021/03/28 05:38:26;;;;;;;1.65;1.00;;;;;;;10.28;42.02;101227.06;4363820;32;34463;-96
2021/03/28 05:41:37;;;;;;;4.25;2.55;;;;;;;10.45;40.80;101243.94;4341065;32;34928;-94
2021/03/28 05:44:56;;;;;;;1.98;0.90;;;;;;;10.48;40.81;101234.50;4349421;32;35371;-94
2021/03/28 05:48:02;;;;;;;2.55;1.12;;;;;;;10.45;41.31;101243.94;4375659;32;34453;-94
2021/03/28 05:51:09;;;;;;;3.55;1.27;;;;;;;10.51;41.01;101246.66;4366775;32;34675;-94
2021/03/28 05:54:18;;;;;;;3.58;1.37;;;;;;;10.52;40.65;101251.03;4336756;33;35547;-95
2021/03/28 05:57:53;;;;;;;2.90;1.25;;;;;;;10.11;41.81;101253.53;4405361;32;35647;-94
2021/03/28 06:01:00;;;;;;;3.12;1.20;;;;;;;10.35;42.11;101258.44;4336169;33;33846;-94
2021/03/28 06:04:25;;;;;;;3.35;1.73;;;;;;;10.27;41.67;101264.31;4352617;32;34100;-94
2021/03/28 06:07:24;;;;;;;3.53;1.10;;;;;;;9.64;42.95;101264.41;4294895;33;36502;-95
2021/03/28 06:10:23;;;;;;;2.45;1.15;;;;;;;9.60;43.22;101264.28;4307335;33;34375;-94
2021/03/28 06:13:58;;;;;;;2.28;0.90;;;;;;;9.73;43.15;101275.03;4367424;32;34301;-94
2021/03/28 06:16:57;;;;;;;4.25;1.27;;;;;;;9.90;42.38;101284.16;4381230;32;33375;-93
2021/03/28 06:20:35;;;;;;;2.97;1.00;;;;;;;9.59;42.95;101289.38;4393069;32;34885;-91
2021/03/28 06:23:49;;;;;;;2.35;0.85;;;;;;;9.68;42.97;101297.41;4361166;32;34929;-92
2021/03/28 06:27:18;;;;;;;2.90;1.12;;;;;;;9.83;42.74;101299.56;4368752;32;32664;-90
2021/03/28 06:30:23;;;;;;;4.55;1.92;;;;;;;10.13;42.23;101306.44;4380269;32;34719;-90
2021/03/28 06:33:06;;;;;;;5.95;1.98;;;;;;;9.88;42.40;101313.56;4380566;32;34034;-91
2021/03/28 06:35:54;;;;;;;3.70;1.55;;;;;;;9.82;42.21;101316.84;4380029;32;32468;-91
2021/03/28 06:39:10;;;;;;;;;;;;;;;9.91;42.32;101308.44;4363775;32;20154;-91
2021/03/28 06:42:22;;;;;;;4.70;0.95;;;;;;;10.88;44.09;101322.16;4372883;32;33817;-94
2021/03/28 06:45:29;;;;;;;3.87;1.02;;;;;;;11.16;40.43;101319.28;4329988;33;36324;-95
2021/03/28 06:49:14;;;;;;;;;;;;;;;;;;;;;
2021/03/28 06:52:55;;;;;;;3.80;0.82;;;;;;;11.69;39.26;101329.97;4331854;33;33503;-88
2021/03/28 06:55:34;;;;;;;3.80;0.90;;;;;;;11.89;37.75;101344.25;4322259;33;34286;-87
2021/03/28 06:58:36;;;;;;;2.53;1.17;;;;;;;11.62;39.43;101347.19;4347032;33;34472;-89
2021/03/28 07:01:16;;;;;;;1.77;0.95;;;;;;;11.84;36.22;101348.53;4334320;33;32261;-87
2021/03/28 07:04:08;;;;;;;2.97;1.20;;;;;;;11.38;37.41;101346.69;4334407;33;32520;-87
2021/03/28 07:07:11;;;;;;;2.80;1.00;;;;;;;11.59;38.75;101354.94;4347909;33;34664;-88
2021/03/28 07:09:44;;;;;;;2.53;0.93;;;;;;;11.59;36.66;101360.13;4333020;33;34650;-85
2021/03/28 07:12:49;;;;;;;1.23;0.73;;;;;;;11.16;37.63;101371.38;4322436;33;33153;-87
2021/03/28 07:15:35;;;;;;;3.15;0.82;;;;;;;11.33;37.29;101375.22;4346577;33;33116;-86
2021/03/28 07:18:30;;;;;;;3.12;0.90;;;;;;;11.14;39.03;101380.88;4322855;33;33247;-87
2021/03/28 07:21:21;;;;;;;1.65;0.90;;;;;;;11.60;37.50;101368.84;4336077;33;35027;-86
2021/03/28 07:24:15;;;;;;;10.75;5.90;;;;;;;11.72;38.07;101376.94;4322909;33;33983;-86
2021/03/28 07:27:09;;;;;;;9.43;4.25;;;;;;;11.85;36.66;101374.59;4334677;33;34651;-86
2021/03/28 07:30:04;;;;;;;4.22;1.90;;;;;;;11.99;36.29;101377.47;4329849;33;33413;-86
2021/03/28 07:33:09;;;;;;;4.03;1.62;;;;;;;12.10;37.63;101373.31;4346836;33;33741;-88
2021/03/28 07:35:53;;;;;;;7.30;3.30;;;;;;;11.94;36.29;101380.00;4334968;33;33795;-91
2021/03/28 07:38:40;;;;;;;3.78;2.03;;;;;;;12.27;35.53;101379.72;4347123;33;34207;-89
2021/03/28 07:41:20;;;;;;;3.17;1.30;;;;;;;11.49;36.84;101384.25;4347760;33;33890;-88
2021/03/28 07:44:15;;;;;;;4.80;1.23;;;;;;;11.84;37.29;101395.44;4334860;33;34318;-90
2021/03/28 07:47:14;;;;;;;4.43;1.52;;;;;;;12.21;35.56;101397.88;4335045;33;33939;-89
2021/03/28 07:50:19;;;;;;;3.55;1.20;;;;;;;11.78;37.41;101408.34;4348051;32;33262;-89
2021/03/28 07:53:15;;;;;;;2.85;1.05;;;;;;;12.23;35.39;101411.84;4349881;32;32111;-91
2021/03/28 07:56:06;;;;;;;2.45;1.00;;;;;;;12.24;35.27;101409.25;4349713;32;35165;-90
2021/03/28 07:58:49;;;;;;;4.93;2.15;;;;;;;12.33;36.27;101407.66;4349941;32;32912;-89
2021/03/28 08:01:32;;;;;;;2.92;1.83;;;;;;;12.45;36.19;101406.16;4362141;32;32877;-90
2021/03/28 08:04:25;;;;;;;1.65;0.90;;;;;;;12.37;35.26;101407.75;4337032;32;33029;-93
2021/03/28 08:07:04;;;;;;;2.20;0.90;;;;;;;12.43;34.97;101407.84;4349422;32;34318;-89
2021/03/28 08:09:51;;;;;;;7.20;5.40;;;;;;;12.64;34.91;101413.47;4361892;32;34964;-90
2021/03/28 08:12:32;;;;;;;5.32;3.50;;;;;;;12.49;35.35;101407.97;4358395;32;34840;-89
2021/03/28 08:15:37;;;;;;;6.00;4.18;;;;;;;12.57;35.00;101414.22;4350128;32;33863;-90
2021/03/28 08:18:21;;;;;;;5.15;3.03;;;;;;;12.81;35.37;101418.97;4362764;32;34350;-88
2021/03/28 08:21:23;;;;;;;2.62;0.95;;;;;;;13.35;36.32;101426.78;4349348;32;33987;-87
2021/03/28 08:24:27;;;;;;;1.98;0.80;;;;;;;13.67;30.81;101429.84;4349179;32;34225;-88
2021/03/28 08:27:20;;;;;;;;;;;;;;;12.83;30.09;101441.62;4338998;32;34736;-88
2021/03/28 08:29:56;;;;;;;1.70;0.85;;;;;;;12.86;29.91;101431.22;4361124;32;33748;-86
2021/03/28 08:32:35;;;;;;;3.17;1.40;;;;;;;13.07;31.90;101432.47;4348856;32;33952;-88
2021/03/28 08:35:18;;;;;;;2.22;1.37;;;;;;;13.03;32.35;101441.94;4348647;32;33949;-89
2021/03/28 08:38:19;;;;;;;2.12;1.33;;;;;;;13.32;31.99;101442.41;4348281;32;33107;-87
2021/03/28 08:40:55;;;;;;;4.37;1.40;;;;;;;13.57;31.35;101439.31;4336421;32;35872;-89
2021/03/28 08:43:37;;;;;;;3.30;1.40;;;;;;;13.27;31.96;101444.06;4349655;32;33740;-89
2021/03/28 08:46:42;;;;;;;2.87;1.12;;;;;;;12.78;30.33;101438.06;4364252;32;32880;-86
2021/03/28 08:49:18;;;;;;;1.65;0.85;;;;;;;13.26;30.12;101432.75;4362869;32;34844;-89
2021/03/28 08:52:30;;;;;;;2.65;1.05;;;;;;;13.44;29.58;101435.62;4350725;32;37055;-87
2021/03/28 08:55:31;;;;;;;3.47;1.35;;;;;;;13.03;28.76;101433.22;4355575;32;33878;-87
2021/03/28 08:58:19;;;;;;;4.87;1.60;;;;;;;13.24;29.78;101444.06;4350417;32;34751;-88
2021/03/28 09:00:58;;;;;;;3.97;1.60;;;;;;;13.15;29.88;101441.25;4338444;32;31861;-88
2021/03/28 09:04:03;;;;;;;4.32;2.28;;;;;;;12.77;29.71;101446.72;4337782;32;33289;-88
2021/03/28 09:06:44;;;;;;;5.65;2.12;;;;;;;12.82;29.10;101441.59;4362489;32;35008;-89
2021/03/28 09:09:21;;;;;;;4.57;1.60;;;;;;;12.45;31.90;101445.31;4350344;32;33973;-89
2021/03/28 09:11:55;;;;;;;4.45;1.92;;;;;;;12.83;30.08;101448.59;4350586;32;34584;-87
2021/03/28 09:14:51;;;;;;;1.87;0.98;;;;;;;12.78;30.65;101448.50;4362630;32;32773;-89
2021/03/28 09:17:56;;;;;;;2.60;1.10;;;;;;;12.78;30.35;101452.84;4363749;32;33807;-89
2021/03/28 09:20:53;;;;;;;3.05;0.98;;;;;;;12.62;29.97;101454.28;4362893;32;32754;-88
2021/03/28 09:23:44;;;;;;;5.90;1.60;;;;;;;12.73;29.40;101450.16;4345420;32;34247;-87
2021/03/28 09:26:13;;;;;;;2.05;1.15;;;;;;;12.52;29.66;101446.28;4362681;32;34242;-85
2021/03/28 09:29:05;;;;;;;4.47;1.20;;;;;;;12.70;30.60;101457.94;4338372;32;34874;-85
2021/03/28 09:31:56;;;;;;;2.67;0.95;;;;;;;12.58;30.13;101455.09;4338227;32;31450;-86
2021/03/28 09:34:35;;;;;;;2.10;1.10;;;;;;;12.08;28.48;101450.66;4350444;32;33906;-88
2021/03/28 09:37:25;;;;;;;3.47;1.42;;;;;;;11.92;28.03;101456.41;4342896;32;33829;-89
2021/03/28 09:40:10;;;;;;;5.07;0.90;;;;;;;11.93;28.38;101445.16;4362253;32;35290;-90
2021/03/28 09:43:03;;;;;;;5.10;0.98;;;;;;;11.63;28.91;101452.28;4351763;32;34321;-91
2021/03/28 09:46:21;;;;;;;2.50;0.73;;;;;;;11.84;27.26;101439.75;4352457;32;33878;-92
2021/03/28 09:49:00;;;;;;;3.58;1.45;;;;;;;11.61;28.30;101452.25;4307306;33;33542;-92
2021/03/28 09:51:45;;;;;;;4.80;0.90;;;;;;;11.92;27.24;101449.47;4294588;33;34710;-91
2021/03/28 09:54:32;;;;;;;3.33;1.10;;;;;;;11.98;26.59;101459.16;4331173;32;33946;-93
2021/03/28 09:57:36;;;;;;;3.45;1.00;;;;;;;12.01;26.02;101451.38;4379186;32;35041;-93
2021/03/28 10:00:48;;;;;;;1.98;0.95;;;;;;;11.96;26.81;101455.62;4370844;32;34805;-94
2021/03/28 10:03:54;;;;;;;2.83;1.30;;;;;;;11.68;27.60;101463.72;4370987;32;34397;-92
2021/03/28 10:06:45;;;;;;;2.70;1.20;;;;;;;12.05;27.29;101458.44;4360664;32;34274;-93
2021/03/28 10:09:52;;;;;;;3.37;1.10;;;;;;;11.98;27.30;101453.94;4362769;32;34314;-94
2021/03/28 10:12:48;;;;;;;2.22;1.00;;;;;;;11.78;26.94;101457.88;4360649;32;35186;-92
2021/03/28 10:15:24;;;;;;;2.67;1.50;;;;;;;11.84;26.46;101450.19;4368643;32;34544;-92
2021/03/28 10:18:36;;;;;;;3.47;1.15;;;;;;;11.91;26.86;101446.84;4372615;32;34210;-92
2021/03/28 10:21:58;;;;;;;2.62;1.20;;;;;;;12.00;26.90;101447.03;4349364;32;34192;-93
2021/03/28 10:25:14;;;;;;;3.05;1.52;;;;;;;12.22;26.90;101449.19;4390321;32;33681;-93
2021/03/28 10:28:29;;;;;;;3.95;1.12;;;;;;;12.23;26.26;101450.97;4369239;32;33207;-92
2021/03/28 10:31:15;;;;;;;3.83;1.77;;;;;;;12.45;26.34;101432.25;4349165;32;33265;-92
2021/03/28 10:34:13;;;;;;;7.95;2.05;;;;;;;12.17;27.42;101446.50;4374985;32;33940;-89
2021/03/28 10:36:57;;;;;;;2.53;1.10;;;;;;;12.10;27.03;101446.34;4338387;32;35775;-91
2021/03/28 10:40:25;;;;;;;2.92;0.90;;;;;;;12.18;27.54;101436.94;4339227;32;34264;-93
2021/03/28 10:43:13;;;;;;;4.12;1.30;;;;;;;12.49;25.76;101426.22;4374976;32;33493;-91
2021/03/28 10:46:20;;;;;;;3.25;1.20;;;;;;;12.95;26.42;101440.06;4362262;32;33409;-94
2021/03/28 10:49:48;;;;;;;3.30;1.00;;;;;;;12.78;27.19;101430.22;4305447;33;36472;-91
2021/03/28 10:52:46;;;;;;;3.00;0.90;;;;;;;13.31;26.77;101432.81;4339621;32;33357;-92
2021/03/28 10:55:43;;;;;;;6.72;1.52;;;;;;;12.97;25.72;101418.34;4360416;32;35369;-93
2021/03/28 10:58:28;;;;;;;3.37;1.20;;;;;;;12.83;25.40;101428.56;4350704;32;32363;-92
2021/03/28 11:01:07;;;;;;;3.45;1.12;;;;;;;13.22;25.42;101414.38;4363918;32;35176;-86
2021/03/28 11:03:50;;;;;;;4.70;1.20;;;;;;;13.57;25.00;101423.63;4363030;32;34154;-85
2021/03/28 11:07:09;;;;;;;2.58;1.00;;;;;;;13.88;27.28;101420.50;4356361;32;34104;-92
2021/03/28 11:10:31;;;;;;;3.72;1.00;;;;;;;13.98;24.53;101414.53;4355916;32;33008;-93
2021/03/28 11:13:06;;;;;;;3.78;1.30;;;;;;;14.17;22.94;101423.44;4365701;32;35200;-93
2021/03/28 11:16:31;;;;;;;2.58;1.10;;;;;;;13.69;24.48;101425.50;4379385;32;33930;-91
2021/03/28 11:19:37;;;;;;;2.33;1.30;;;;;;;13.81;24.19;101423.91;4365325;32;34464;-93
2021/03/28 11:22:34;;;;;;;2.92;1.30;;;;;;;13.86;24.10;101408.28;4354128;32;34815;-93
2021/03/28 11:25:28;;;;;;;2.85;1.00;;;;;;;13.58;25.23;101422.75;4365551;32;34696;-91
2021/03/28 11:28:03;;;;;;;4.40;0.98;;;;;;;13.81;24.74;101413.44;4353558;32;34243;-93
2021/03/28 11:30:41;;;;;;;2.35;0.77;;;;;;;13.77;24.89;101418.62;4365912;32;33304;-91
2021/03/28 11:33:28;;;;;;;5.60;1.00;;;;;;;13.81;24.01;101417.81;4353949;32;33841;-93
2021/03/28 11:35:56;;;;;;;1.40;0.70;;;;;;;13.83;25.01;101409.13;4352800;32;34556;-92
2021/03/28 11:38:32;;;;;;;2.83;1.00;;;;;;;14.08;25.47;101402.41;4365026;32;34231;-93
2021/03/28 11:41:11;;;;;;;3.17;1.10;;;;;;;14.43;25.22;101410.69;4365188;32;33657;-93
2021/03/28 11:43:52;;;;;;;2.58;0.70;;;;;;;14.32;25.19;101404.44;4365220;32;33870;-92
2021/03/28 11:46:38;;;;;;;2.28;0.80;;;;;;;14.43;23.20;101410.69;4354122;32;35295;-94
2021/03/28 11:49:10;;;;;;;3.13;0.90;;;;;;;14.15;22.36;101404.25;4340556;32;34604;-95
2021/03/28 11:51:52;;;;;;;4.05;1.30;;;;;;;14.11;23.46;101399.84;4320650;33;34170;-93
2021/03/28 11:54:22;;;;;;;2.80;1.42;;;;;;;14.53;23.16;101402.03;4332920;33;34228;-92
2021/03/28 11:57:05;;;;;;;3.03;1.00;;;;;;;14.43;23.42;101397.59;4332583;33;35001;-91
2021/03/28 11:59:35;;;;;;;1.40;0.70;;;;;;;14.41;21.91;101388.81;4333795;33;34121;-92
2021/03/28 12:02:12;;;;;;;1.73;0.70;;;;;;;14.10;22.50;101379.75;4320425;33;34256;-92
2021/03/28 12:04:59;;;;;;;3.15;0.80;;;;;;;14.30;22.17;101377.34;4307911;33;32429;-91
2021/03/28 12:07:41;;;;;;;2.75;1.10;;;;;;;14.32;22.59;101373.03;4320163;33;35772;-90
2021/03/28 12:10:09;;;;;;;2.45;1.10;;;;;;;14.49;23.06;101364.50;4332261;33;33936;-91
2021/03/28 12:12:40;;;;;;;2.08;0.98;;;;;;;14.72;23.12;101365.53;4332388;33;33894;-92
2021/03/28 12:15:42;;;;;;;3.05;0.90;;;;;;;14.52;23.30;101374.12;4333647;33;33655;-91
2021/03/28 12:18:26;;;;;;;1.87;0.77;;;;;;;14.56;23.34;101365.41;4333248;33;35111;-90
2021/03/28 12:21:01;;;;;;;2.33;0.80;;;;;;;14.76;22.47;101363.84;4321993;33;32666;-93
2021/03/28 12:23:48;;;;;;;1.37;1.05;;;;;;;14.86;23.20;101360.41;4334304;33;33370;-92
2021/03/28 12:26:35;;;;;;;3.25;0.90;;;;;;;14.57;23.08;101352.31;4334423;33;34625;-91
2021/03/28 12:29:12;;;;;;;3.03;1.55;;;;;;;14.99;22.69;101345.66;4334509;33;34333;-91
2021/03/28 12:31:42;;;;;;;1.65;0.90;;;;;;;15.03;22.61;101339.56;4334399;33;34605;-93
2021/03/28 12:34:16;;;;;;;;;;;;;;;15.14;22.49;101337.88;4334825;33;33533;-91
2021/03/28 12:37:06;;;;;;;1.77;0.98;;;;;;;15.01;22.95;101336.94;4334656;33;33023;-91
2021/03/28 12:39:57;;;;;;;1.67;0.70;;;;;;;15.37;22.58;101339.75;4334992;33;34329;-91
2021/03/28 12:42:27;;;;;;;4.05;0.70;;;;;;;15.59;22.41;101336.38;4334388;33;34679;-92
2021/03/28 12:45:07;;;;;;;3.55;1.20;;;;;;;15.21;21.41;101337.94;4334286;33;35105;-92
2021/03/28 12:47:49;;;;;;;3.35;1.20;;;;;;;15.33;22.45;101334.50;4334286;33;33968;-91
2021/03/28 12:50:17;;;;;;;4.95;1.30;;;;;;;15.65;22.26;101332.03;4340832;33;35325;-94
2021/03/28 12:53:20;;;;;;;3.75;1.00;;;;;;;15.10;22.88;101336.97;4374682;32;35577;-94
2021/03/28 12:56:31;;;;;;;2.30;0.75;;;;;;;15.52;22.60;101336.38;4371156;32;33426;-92
2021/03/28 12:59:27;;;;;;;3.90;1.17;;;;;;;15.44;22.65;101330.16;4380994;32;33535;-94
2021/03/28 13:02:29;;;;;;;2.75;1.12;;;;;;;15.44;22.46;101336.31;4372016;32;33630;-92
2021/03/28 13:05:07;;;;;;;3.58;1.33;;;;;;;15.56;22.55;101328.50;4381411;32;34317;-91
2021/03/28 13:07:42;;;;;;;4.70;1.30;;;;;;;15.66;23.11;101310.19;4393805;32;34046;-92
2021/03/28 13:10:32;;;;;;;3.25;1.73;;;;;;;15.34;22.72;101321.37;4369053;32;34703;-91
2021/03/28 13:13:15;;;;;;;3.40;1.20;;;;;;;15.28;22.46;101323.09;4381089;32;34359;-93
2021/03/28 13:15:52;;;;;;;2.67;1.23;;;;;;;15.47;23.39;101317.12;4380933;32;34388;-93
2021/03/28 13:18:30;;;;;;;3.12;1.30;;;;;;;15.40;22.52;101323.16;4380857;32;33966;-92
2021/03/28 13:21:18;;;;;;;2.40;1.23;;;;;;;15.36;23.45;101317.03;4368391;32;34546;-91
2021/03/28 13:23:46;;;;;;;5.50;1.15;;;;;;;15.12;23.51;101313.44;4380650;32;36479;-92
2021/03/28 13:26:30;;;;;;;4.85;1.30;;;;;;;14.74;24.14;101324.53;4381597;32;34196;-91